sensor_id;sensor_type;location;lat;lon;timestamp;P1;durP1;ratioP1;P2;durP2;ratioP2
45043;SDS011;30784;48.490;9.688;2023-02-15T00:04:02;24.38;;;14.13;;
45043;SDS011;30784;48.490;9.688;2023-02-15T00:06:31;36.33;;;19.55;;
45043;SDS011;30784;48.490;9.688;2023-02-15T00:08:57;33.65;;;19.15;;
45043;SDS011;30784;48.490;9.688;2023-02-15T00:11:39;24.35;;;14.07;;
45043;SDS011;30784;48.490;9.688;2023-02-15T00:14:21;24.60;;;12.82;;
45043;SDS011;30784;48.490;9.688;2023-02-15T00:16:51;21.45;;;12.00;;
45043;SDS011;30784;48.490;9.688;2023-02-15T00:19:20;22.30;;;11.77;;
45043;SDS011;30784;48.490;9.688;2023-02-15T00:21:46;21.08;;;11.50;;
45043;SDS011;30784;48.490;9.688;2023-02-15T00:24:17;25.52;;;14.73;;
45043;SDS011;30784;48.490;9.688;2023-02-15T00:26:43;34.90;;;20.02;;
45043;SDS011;30784;48.490;9.688;2023-02-15T00:29:10;24.13;;;13.70;;
45043;SDS011;30784;48.490;9.688;2023-02-15T00:31:36;23.73;;;13.60;;
45043;SDS011;30784;48.490;9.688;2023-02-15T00:36:38;23.13;;;12.68;;
45043;SDS011;30784;48.490;9.688;2023-02-15T00:39:04;22.90;;;12.15;;
45043;SDS011;30784;48.490;9.688;2023-02-15T00:41:30;21.05;;;12.10;;
45043;SDS011;30784;48.490;9.688;2023-02-15T00:43:56;22.88;;;12.25;;
45043;SDS011;30784;48.490;9.688;2023-02-15T00:46:22;21.30;;;11.68;;
45043;SDS011;30784;48.490;9.688;2023-02-15T00:48:47;20.45;;;11.27;;
45043;SDS011;30784;48.490;9.688;2023-02-15T00:51:13;21.48;;;11.50;;
45043;SDS011;30784;48.490;9.688;2023-02-15T00:53:39;22.20;;;11.60;;
45043;SDS011;30784;48.490;9.688;2023-02-15T00:56:04;18.15;;;10.45;;
45043;SDS011;30784;48.490;9.688;2023-02-15T00:58:30;18.60;;;10.70;;
45043;SDS011;30784;48.490;9.688;2023-02-15T01:01:01;18.45;;;10.18;;
45043;SDS011;30784;48.490;9.688;2023-02-15T01:03:32;24.13;;;13.38;;
45043;SDS011;30784;48.490;9.688;2023-02-15T01:05:58;21.95;;;12.65;;
45043;SDS011;30784;48.490;9.688;2023-02-15T01:08:23;18.73;;;10.73;;
45043;SDS011;30784;48.490;9.688;2023-02-15T01:10:49;19.10;;;10.30;;
45043;SDS011;30784;48.490;9.688;2023-02-15T01:13:15;18.63;;;10.35;;
45043;SDS011;30784;48.490;9.688;2023-02-15T01:15:41;18.80;;;9.45;;
45043;SDS011;30784;48.490;9.688;2023-02-15T01:18:07;18.10;;;9.23;;
45043;SDS011;30784;48.490;9.688;2023-02-15T01:20:34;18.00;;;9.38;;
45043;SDS011;30784;48.490;9.688;2023-02-15T01:23:04;17.40;;;9.43;;
45043;SDS011;30784;48.490;9.688;2023-02-15T01:25:30;18.85;;;10.45;;
45043;SDS011;30784;48.490;9.688;2023-02-15T01:27:55;18.52;;;10.50;;
45043;SDS011;30784;48.490;9.688;2023-02-15T01:30:21;19.02;;;9.88;;
45043;SDS011;30784;48.490;9.688;2023-02-15T01:32:46;18.80;;;9.25;;
45043;SDS011;30784;48.490;9.688;2023-02-15T01:35:12;18.73;;;9.60;;
45043;SDS011;30784;48.490;9.688;2023-02-15T01:37:37;18.15;;;9.73;;
45043;SDS011;30784;48.490;9.688;2023-02-15T01:40:04;21.23;;;11.60;;
45043;SDS011;30784;48.490;9.688;2023-02-15T01:42:31;23.73;;;12.30;;
45043;SDS011;30784;48.490;9.688;2023-02-15T01:44:58;20.42;;;10.57;;
45043;SDS011;30784;48.490;9.688;2023-02-15T01:50:12;18.02;;;9.27;;
45043;SDS011;30784;48.490;9.688;2023-02-15T01:52:40;19.95;;;10.07;;
45043;SDS011;30784;48.490;9.688;2023-02-15T01:55:13;17.95;;;9.73;;
45043;SDS011;30784;48.490;9.688;2023-02-15T01:57:39;18.90;;;9.30;;
45043;SDS011;30784;48.490;9.688;2023-02-15T02:00:05;18.17;;;9.43;;
45043;SDS011;30784;48.490;9.688;2023-02-15T02:02:33;17.88;;;9.18;;
45043;SDS011;30784;48.490;9.688;2023-02-15T02:04:59;18.52;;;9.70;;
45043;SDS011;30784;48.490;9.688;2023-02-15T02:07:31;20.35;;;9.88;;
45043;SDS011;30784;48.490;9.688;2023-02-15T02:10:02;19.65;;;9.90;;
45043;SDS011;30784;48.490;9.688;2023-02-15T02:12:30;20.25;;;9.98;;
45043;SDS011;30784;48.490;9.688;2023-02-15T02:14:56;17.27;;;9.20;;
45043;SDS011;30784;48.490;9.688;2023-02-15T02:17:34;18.67;;;9.52;;
45043;SDS011;30784;48.490;9.688;2023-02-15T02:28:44;17.90;;;9.35;;
45043;SDS011;30784;48.490;9.688;2023-02-15T02:34:30;18.45;;;9.65;;
45043;SDS011;30784;48.490;9.688;2023-02-15T02:37:08;19.20;;;10.10;;
45043;SDS011;30784;48.490;9.688;2023-02-15T02:39:49;18.85;;;9.48;;
45043;SDS011;30784;48.490;9.688;2023-02-15T02:42:44;19.25;;;9.88;;
45043;SDS011;30784;48.490;9.688;2023-02-15T02:45:53;18.92;;;9.95;;
45043;SDS011;30784;48.490;9.688;2023-02-15T02:48:25;18.83;;;9.73;;
45043;SDS011;30784;48.490;9.688;2023-02-15T02:50:55;18.77;;;9.75;;
45043;SDS011;30784;48.490;9.688;2023-02-15T02:53:20;19.83;;;9.90;;
45043;SDS011;30784;48.490;9.688;2023-02-15T02:55:50;19.65;;;10.10;;
45043;SDS011;30784;48.490;9.688;2023-02-15T02:58:26;19.42;;;9.48;;
45043;SDS011;30784;48.490;9.688;2023-02-15T03:01:13;19.83;;;10.13;;
45043;SDS011;30784;48.490;9.688;2023-02-15T03:03:45;20.70;;;9.88;;
45043;SDS011;30784;48.490;9.688;2023-02-15T03:06:23;17.50;;;9.27;;
45043;SDS011;30784;48.490;9.688;2023-02-15T03:09:39;18.75;;;9.70;;
45043;SDS011;30784;48.490;9.688;2023-02-15T03:11:49;17.23;;;9.10;;
45043;SDS011;30784;48.490;9.688;2023-02-15T03:14:15;18.20;;;9.57;;
45043;SDS011;30784;48.490;9.688;2023-02-15T03:16:43;18.55;;;9.95;;
45043;SDS011;30784;48.490;9.688;2023-02-15T03:19:13;20.80;;;10.38;;
45043;SDS011;30784;48.490;9.688;2023-02-15T03:21:54;19.02;;;10.13;;
45043;SDS011;30784;48.490;9.688;2023-02-15T03:24:27;18.10;;;9.23;;
45043;SDS011;30784;48.490;9.688;2023-02-15T03:26:59;17.75;;;9.43;;
45043;SDS011;30784;48.490;9.688;2023-02-15T03:29:31;19.02;;;10.13;;
45043;SDS011;30784;48.490;9.688;2023-02-15T03:31:59;18.48;;;10.38;;
45043;SDS011;30784;48.490;9.688;2023-02-15T03:34:26;17.25;;;9.85;;
45043;SDS011;30784;48.490;9.688;2023-02-15T03:36:55;16.80;;;9.57;;
45043;SDS011;30784;48.490;9.688;2023-02-15T03:39:47;19.58;;;9.80;;
45043;SDS011;30784;48.490;9.688;2023-02-15T03:42:44;19.02;;;9.85;;
45043;SDS011;30784;48.490;9.688;2023-02-15T03:45:11;19.40;;;10.30;;
45043;SDS011;30784;48.490;9.688;2023-02-15T03:47:43;18.08;;;10.20;;
45043;SDS011;30784;48.490;9.688;2023-02-15T03:50:22;18.13;;;9.73;;
45043;SDS011;30784;48.490;9.688;2023-02-15T03:53:11;19.30;;;9.65;;
45043;SDS011;30784;48.490;9.688;2023-02-15T03:55:40;18.38;;;9.65;;
45043;SDS011;30784;48.490;9.688;2023-02-15T03:58:05;20.23;;;11.07;;
45043;SDS011;30784;48.490;9.688;2023-02-15T04:00:55;18.90;;;10.10;;
45043;SDS011;30784;48.490;9.688;2023-02-15T04:03:45;17.95;;;9.85;;
45043;SDS011;30784;48.490;9.688;2023-02-15T04:06:16;19.25;;;9.98;;
45043;SDS011;30784;48.490;9.688;2023-02-15T04:08:41;19.88;;;10.38;;
45043;SDS011;30784;48.490;9.688;2023-02-15T04:11:25;19.10;;;10.32;;
45043;SDS011;30784;48.490;9.688;2023-02-15T04:13:51;17.83;;;9.82;;
45043;SDS011;30784;48.490;9.688;2023-02-15T04:16:21;19.20;;;10.73;;
45043;SDS011;30784;48.490;9.688;2023-02-15T04:18:50;18.77;;;10.00;;
45043;SDS011;30784;48.490;9.688;2023-02-15T04:21:35;19.27;;;10.23;;
45043;SDS011;30784;48.490;9.688;2023-02-15T04:24:19;18.25;;;9.15;;
45043;SDS011;30784;48.490;9.688;2023-02-15T04:27:03;17.92;;;9.50;;
45043;SDS011;30784;48.490;9.688;2023-02-15T04:29:30;19.33;;;10.60;;
45043;SDS011;30784;48.490;9.688;2023-02-15T04:31:57;20.58;;;11.15;;
45043;SDS011;30784;48.490;9.688;2023-02-15T04:34:25;20.40;;;11.00;;
45043;SDS011;30784;48.490;9.688;2023-02-15T04:36:50;27.63;;;16.73;;
45043;SDS011;30784;48.490;9.688;2023-02-15T04:39:16;23.27;;;14.00;;
45043;SDS011;30784;48.490;9.688;2023-02-15T04:41:43;19.33;;;10.95;;
45043;SDS011;30784;48.490;9.688;2023-02-15T04:44:09;20.20;;;11.23;;
45043;SDS011;30784;48.490;9.688;2023-02-15T04:46:35;20.35;;;10.43;;
45043;SDS011;30784;48.490;9.688;2023-02-15T04:49:00;18.02;;;10.10;;
45043;SDS011;30784;48.490;9.688;2023-02-15T04:51:26;19.33;;;10.18;;
45043;SDS011;30784;48.490;9.688;2023-02-15T04:53:51;20.48;;;10.85;;
45043;SDS011;30784;48.490;9.688;2023-02-15T04:56:20;18.53;;;10.13;;
45043;SDS011;30784;48.490;9.688;2023-02-15T04:58:46;16.42;;;8.60;;
45043;SDS011;30784;48.490;9.688;2023-02-15T05:01:12;16.35;;;8.85;;
45043;SDS011;30784;48.490;9.688;2023-02-15T05:03:38;16.55;;;8.75;;
45043;SDS011;30784;48.490;9.688;2023-02-15T05:06:03;16.77;;;8.73;;
45043;SDS011;30784;48.490;9.688;2023-02-15T05:08:29;15.43;;;8.32;;
45043;SDS011;30784;48.490;9.688;2023-02-15T05:10:55;16.15;;;8.52;;
45043;SDS011;30784;48.490;9.688;2023-02-15T05:13:21;16.20;;;8.52;;
45043;SDS011;30784;48.490;9.688;2023-02-15T05:15:48;17.17;;;8.23;;
45043;SDS011;30784;48.490;9.688;2023-02-15T05:18:16;16.35;;;8.60;;
45043;SDS011;30784;48.490;9.688;2023-02-15T05:20:43;15.20;;;8.10;;
45043;SDS011;30784;48.490;9.688;2023-02-15T05:23:09;15.65;;;8.52;;
45043;SDS011;30784;48.490;9.688;2023-02-15T05:25:34;15.65;;;7.85;;
45043;SDS011;30784;48.490;9.688;2023-02-15T05:28:18;16.27;;;8.15;;
45043;SDS011;30784;48.490;9.688;2023-02-15T05:30:44;18.30;;;9.00;;
45043;SDS011;30784;48.490;9.688;2023-02-15T05:33:30;15.52;;;8.27;;
45043;SDS011;30784;48.490;9.688;2023-02-15T05:35:56;16.08;;;8.30;;
45043;SDS011;30784;48.490;9.688;2023-02-15T05:38:21;16.83;;;8.88;;
45043;SDS011;30784;48.490;9.688;2023-02-15T05:40:47;15.23;;;8.05;;
45043;SDS011;30784;48.490;9.688;2023-02-15T05:43:12;17.10;;;8.23;;
45043;SDS011;30784;48.490;9.688;2023-02-15T05:45:38;18.42;;;8.35;;
45043;SDS011;30784;48.490;9.688;2023-02-15T05:48:04;15.90;;;8.18;;
45043;SDS011;30784;48.490;9.688;2023-02-15T05:50:29;18.60;;;8.80;;
45043;SDS011;30784;48.490;9.688;2023-02-15T05:52:55;18.85;;;8.88;;
45043;SDS011;30784;48.490;9.688;2023-02-15T05:55:21;16.92;;;9.55;;
45043;SDS011;30784;48.490;9.688;2023-02-15T05:57:48;17.55;;;9.88;;
45043;SDS011;30784;48.490;9.688;2023-02-15T06:00:13;17.80;;;9.45;;
45043;SDS011;30784;48.490;9.688;2023-02-15T06:02:39;18.70;;;10.15;;
45043;SDS011;30784;48.490;9.688;2023-02-15T06:05:05;21.00;;;10.35;;
45043;SDS011;30784;48.490;9.688;2023-02-15T06:07:31;26.30;;;13.02;;
45043;SDS011;30784;48.490;9.688;2023-02-15T06:09:57;34.17;;;15.40;;
45043;SDS011;30784;48.490;9.688;2023-02-15T06:12:22;34.55;;;15.25;;
45043;SDS011;30784;48.490;9.688;2023-02-15T06:14:49;31.15;;;14.48;;
45043;SDS011;30784;48.490;9.688;2023-02-15T06:17:14;32.83;;;14.48;;
45043;SDS011;30784;48.490;9.688;2023-02-15T06:19:41;34.15;;;16.00;;
45043;SDS011;30784;48.490;9.688;2023-02-15T06:22:07;27.23;;;14.18;;
45043;SDS011;30784;48.490;9.688;2023-02-15T06:24:32;26.10;;;13.77;;
45043;SDS011;30784;48.490;9.688;2023-02-15T06:26:58;28.50;;;12.80;;
45043;SDS011;30784;48.490;9.688;2023-02-15T06:29:23;26.67;;;13.23;;
45043;SDS011;30784;48.490;9.688;2023-02-15T06:31:49;26.60;;;13.85;;
45043;SDS011;30784;48.490;9.688;2023-02-15T06:34:14;23.83;;;13.38;;
45043;SDS011;30784;48.490;9.688;2023-02-15T06:36:40;25.17;;;13.15;;
45043;SDS011;30784;48.490;9.688;2023-02-15T06:39:06;28.33;;;14.38;;
45043;SDS011;30784;48.490;9.688;2023-02-15T06:41:32;26.90;;;14.18;;
45043;SDS011;30784;48.490;9.688;2023-02-15T06:43:57;26.15;;;13.15;;
45043;SDS011;30784;48.490;9.688;2023-02-15T06:46:23;28.65;;;13.35;;
45043;SDS011;30784;48.490;9.688;2023-02-15T06:48:49;27.52;;;13.25;;
45043;SDS011;30784;48.490;9.688;2023-02-15T06:51:14;26.63;;;13.43;;
45043;SDS011;30784;48.490;9.688;2023-02-15T06:53:40;25.67;;;13.05;;
45043;SDS011;30784;48.490;9.688;2023-02-15T06:56:09;28.08;;;14.35;;
45043;SDS011;30784;48.490;9.688;2023-02-15T06:58:36;30.92;;;14.55;;
45043;SDS011;30784;48.490;9.688;2023-02-15T07:01:02;26.55;;;13.45;;
45043;SDS011;30784;48.490;9.688;2023-02-15T07:03:28;26.35;;;13.23;;
45043;SDS011;30784;48.490;9.688;2023-02-15T07:05:58;26.30;;;13.50;;
45043;SDS011;30784;48.490;9.688;2023-02-15T07:08:25;27.90;;;13.63;;
45043;SDS011;30784;48.490;9.688;2023-02-15T07:10:52;25.70;;;12.82;;
45043;SDS011;30784;48.490;9.688;2023-02-15T07:13:18;28.13;;;14.63;;
45043;SDS011;30784;48.490;9.688;2023-02-15T07:15:45;33.92;;;17.00;;
45043;SDS011;30784;48.490;9.688;2023-02-15T07:18:12;33.72;;;16.90;;
45043;SDS011;30784;48.490;9.688;2023-02-15T07:20:38;29.00;;;16.30;;
45043;SDS011;30784;48.490;9.688;2023-02-15T07:23:06;31.45;;;16.05;;
45043;SDS011;30784;48.490;9.688;2023-02-15T07:25:33;28.52;;;15.07;;
45043;SDS011;30784;48.490;9.688;2023-02-15T07:27:59;32.90;;;16.75;;
45043;SDS011;30784;48.490;9.688;2023-02-15T07:30:25;29.90;;;14.85;;
45043;SDS011;30784;48.490;9.688;2023-02-15T07:32:57;29.17;;;15.32;;
45043;SDS011;30784;48.490;9.688;2023-02-15T07:35:48;25.75;;;13.70;;
45043;SDS011;30784;48.490;9.688;2023-02-15T07:38:26;28.73;;;14.73;;
45043;SDS011;30784;48.490;9.688;2023-02-15T07:40:59;30.35;;;16.40;;
45043;SDS011;30784;48.490;9.688;2023-02-15T07:43:25;26.20;;;15.23;;
45043;SDS011;30784;48.490;9.688;2023-02-15T07:45:51;26.35;;;14.20;;
45043;SDS011;30784;48.490;9.688;2023-02-15T07:48:16;23.60;;;12.63;;
45043;SDS011;30784;48.490;9.688;2023-02-15T07:50:42;25.67;;;12.88;;
45043;SDS011;30784;48.490;9.688;2023-02-15T07:53:08;23.13;;;13.23;;
45043;SDS011;30784;48.490;9.688;2023-02-15T07:55:33;26.25;;;13.77;;
45043;SDS011;30784;48.490;9.688;2023-02-15T07:57:59;25.05;;;12.70;;
45043;SDS011;30784;48.490;9.688;2023-02-15T08:00:24;24.73;;;12.55;;
45043;SDS011;30784;48.490;9.688;2023-02-15T08:02:51;21.42;;;11.48;;
45043;SDS011;30784;48.490;9.688;2023-02-15T08:05:36;21.45;;;10.57;;
45043;SDS011;30784;48.490;9.688;2023-02-15T08:08:01;19.80;;;9.90;;
45043;SDS011;30784;48.490;9.688;2023-02-15T08:10:27;20.60;;;10.43;;
45043;SDS011;30784;48.490;9.688;2023-02-15T08:13:12;19.67;;;10.23;;
45043;SDS011;30784;48.490;9.688;2023-02-15T08:15:38;20.17;;;9.50;;
45043;SDS011;30784;48.490;9.688;2023-02-15T08:18:03;19.42;;;9.25;;
45043;SDS011;30784;48.490;9.688;2023-02-15T08:20:29;18.73;;;8.82;;
45043;SDS011;30784;48.490;9.688;2023-02-15T08:22:54;20.30;;;10.00;;
45043;SDS011;30784;48.490;9.688;2023-02-15T08:25:20;19.17;;;9.10;;
45043;SDS011;30784;48.490;9.688;2023-02-15T08:27:45;17.67;;;9.20;;
45043;SDS011;30784;48.490;9.688;2023-02-15T08:30:11;19.63;;;10.13;;
45043;SDS011;30784;48.490;9.688;2023-02-15T08:32:39;19.88;;;9.93;;
45043;SDS011;30784;48.490;9.688;2023-02-15T08:35:04;25.50;;;13.05;;
45043;SDS011;30784;48.490;9.688;2023-02-15T08:37:30;26.42;;;13.95;;
45043;SDS011;30784;48.490;9.688;2023-02-15T08:39:55;25.50;;;13.88;;
45043;SDS011;30784;48.490;9.688;2023-02-15T08:42:21;23.05;;;11.50;;
45043;SDS011;30784;48.490;9.688;2023-02-15T08:44:46;20.30;;;11.05;;
45043;SDS011;30784;48.490;9.688;2023-02-15T08:47:15;18.52;;;10.18;;
45043;SDS011;30784;48.490;9.688;2023-02-15T08:49:40;17.90;;;9.32;;
45043;SDS011;30784;48.490;9.688;2023-02-15T08:52:06;18.45;;;10.05;;
45043;SDS011;30784;48.490;9.688;2023-02-15T08:54:32;15.23;;;8.18;;
45043;SDS011;30784;48.490;9.688;2023-02-15T08:56:57;14.57;;;7.70;;
45043;SDS011;30784;48.490;9.688;2023-02-15T08:59:23;16.27;;;8.68;;
45043;SDS011;30784;48.490;9.688;2023-02-15T09:01:51;16.35;;;8.82;;
45043;SDS011;30784;48.490;9.688;2023-02-15T09:04:18;15.88;;;8.45;;
45043;SDS011;30784;48.490;9.688;2023-02-15T09:06:45;15.68;;;8.82;;
45043;SDS011;30784;48.490;9.688;2023-02-15T09:09:12;15.95;;;8.77;;
45043;SDS011;30784;48.490;9.688;2023-02-15T09:11:39;17.40;;;9.32;;
45043;SDS011;30784;48.490;9.688;2023-02-15T09:14:10;16.08;;;8.93;;
45043;SDS011;30784;48.490;9.688;2023-02-15T09:16:41;15.48;;;9.00;;
45043;SDS011;30784;48.490;9.688;2023-02-15T09:19:13;17.80;;;9.98;;
45043;SDS011;30784;48.490;9.688;2023-02-15T09:21:39;19.23;;;10.77;;
45043;SDS011;30784;48.490;9.688;2023-02-15T09:24:06;16.73;;;9.48;;
45043;SDS011;30784;48.490;9.688;2023-02-15T09:26:34;16.50;;;10.18;;
45043;SDS011;30784;48.490;9.688;2023-02-15T09:29:02;17.50;;;9.60;;
45043;SDS011;30784;48.490;9.688;2023-02-15T09:31:48;17.48;;;9.88;;
45043;SDS011;30784;48.490;9.688;2023-02-15T09:34:16;17.02;;;9.35;;
45043;SDS011;30784;48.490;9.688;2023-02-15T09:36:43;17.95;;;9.98;;
45043;SDS011;30784;48.490;9.688;2023-02-15T09:39:10;20.75;;;10.55;;
45043;SDS011;30784;48.490;9.688;2023-02-15T09:47:23;15.63;;;9.52;;
45043;SDS011;30784;48.490;9.688;2023-02-15T10:06:24;12.35;;;7.10;;
45043;SDS011;30784;48.490;9.688;2023-02-15T10:23:13;10.85;;;6.15;;
45043;SDS011;30784;48.490;9.688;2023-02-15T10:25:56;10.85;;;5.80;;
45043;SDS011;30784;48.490;9.688;2023-02-15T10:28:43;11.68;;;6.15;;
45043;SDS011;30784;48.490;9.688;2023-02-15T10:31:24;13.65;;;10.05;;
45043;SDS011;30784;48.490;9.688;2023-02-15T10:34:00;10.30;;;6.13;;
45043;SDS011;30784;48.490;9.688;2023-02-15T10:39:25;11.30;;;6.45;;
45043;SDS011;30784;48.490;9.688;2023-02-15T10:42:30;10.70;;;6.25;;
45043;SDS011;30784;48.490;9.688;2023-02-15T10:51:00;10.07;;;5.80;;
45043;SDS011;30784;48.490;9.688;2023-02-15T10:53:33;11.07;;;7.03;;
45043;SDS011;30784;48.490;9.688;2023-02-15T10:58:54;12.30;;;7.38;;
45043;SDS011;30784;48.490;9.688;2023-02-15T11:01:55;10.75;;;7.05;;
45043;SDS011;30784;48.490;9.688;2023-02-15T11:07:27;11.18;;;6.43;;
45043;SDS011;30784;48.490;9.688;2023-02-15T11:17:49;10.85;;;7.10;;
45043;SDS011;30784;48.490;9.688;2023-02-15T11:20:25;11.25;;;7.28;;
45043;SDS011;30784;48.490;9.688;2023-02-15T11:22:55;12.27;;;7.80;;
45043;SDS011;30784;48.490;9.688;2023-02-15T11:25:29;10.82;;;7.05;;
45043;SDS011;30784;48.490;9.688;2023-02-15T11:27:57;10.95;;;7.03;;
45043;SDS011;30784;48.490;9.688;2023-02-15T11:30:24;14.27;;;7.70;;
45043;SDS011;30784;48.490;9.688;2023-02-15T11:32:53;10.95;;;6.78;;
45043;SDS011;30784;48.490;9.688;2023-02-15T11:35:37;10.57;;;6.95;;
45043;SDS011;30784;48.490;9.688;2023-02-15T11:38:13;11.35;;;7.18;;
45043;SDS011;30784;48.490;9.688;2023-02-15T11:40:57;12.60;;;7.13;;
45043;SDS011;30784;48.490;9.688;2023-02-15T11:46:21;11.35;;;7.15;;
45043;SDS011;30784;48.490;9.688;2023-02-15T11:48:47;11.93;;;7.85;;
45043;SDS011;30784;48.490;9.688;2023-02-15T11:51:20;11.57;;;7.75;;
45043;SDS011;30784;48.490;9.688;2023-02-15T11:53:47;12.05;;;7.85;;
45043;SDS011;30784;48.490;9.688;2023-02-15T11:56:14;12.88;;;7.65;;
45043;SDS011;30784;48.490;9.688;2023-02-15T11:58:43;12.50;;;7.88;;
45043;SDS011;30784;48.490;9.688;2023-02-15T12:03:58;11.48;;;6.82;;
45043;SDS011;30784;48.490;9.688;2023-02-15T12:06:33;11.65;;;7.72;;
45043;SDS011;30784;48.490;9.688;2023-02-15T12:09:16;12.98;;;8.00;;
45043;SDS011;30784;48.490;9.688;2023-02-15T12:11:54;12.35;;;7.45;;
45043;SDS011;30784;48.490;9.688;2023-02-15T12:14:52;10.55;;;6.85;;
45043;SDS011;30784;48.490;9.688;2023-02-15T12:17:23;11.65;;;8.02;;
45043;SDS011;30784;48.490;9.688;2023-02-15T12:19:52;11.82;;;7.32;;
45043;SDS011;30784;48.490;9.688;2023-02-15T12:22:22;12.18;;;7.82;;
45043;SDS011;30784;48.490;9.688;2023-02-15T12:24:51;12.35;;;7.82;;
45043;SDS011;30784;48.490;9.688;2023-02-15T12:27:21;11.13;;;7.25;;
45043;SDS011;30784;48.490;9.688;2023-02-15T12:30:05;11.40;;;7.28;;
45043;SDS011;30784;48.490;9.688;2023-02-15T12:32:52;11.80;;;7.40;;
45043;SDS011;30784;48.490;9.688;2023-02-15T12:37:55;10.30;;;6.85;;
45043;SDS011;30784;48.490;9.688;2023-02-15T12:40:40;11.80;;;7.03;;
45043;SDS011;30784;48.490;9.688;2023-02-15T12:43:24;11.55;;;7.70;;
45043;SDS011;30784;48.490;9.688;2023-02-15T12:45:51;15.52;;;11.55;;
45043;SDS011;30784;48.490;9.688;2023-02-15T12:48:18;13.48;;;8.85;;
45043;SDS011;30784;48.490;9.688;2023-02-15T12:50:45;10.73;;;6.60;;
45043;SDS011;30784;48.490;9.688;2023-02-15T12:55:49;10.52;;;5.93;;
45043;SDS011;30784;48.490;9.688;2023-02-15T12:58:21;9.95;;;6.05;;
45043;SDS011;30784;48.490;9.688;2023-02-15T13:03:34;9.95;;;6.32;;
45043;SDS011;30784;48.490;9.688;2023-02-15T13:06:01;9.23;;;5.80;;
45043;SDS011;30784;48.490;9.688;2023-02-15T13:08:33;9.43;;;5.70;;
45043;SDS011;30784;48.490;9.688;2023-02-15T13:11:05;10.05;;;6.22;;
45043;SDS011;30784;48.490;9.688;2023-02-15T13:13:35;10.45;;;5.82;;
45043;SDS011;30784;48.490;9.688;2023-02-15T13:16:24;10.82;;;6.85;;
45043;SDS011;30784;48.490;9.688;2023-02-15T13:18:56;12.13;;;7.35;;
45043;SDS011;30784;48.490;9.688;2023-02-15T13:21:29;11.35;;;7.20;;
45043;SDS011;30784;48.490;9.688;2023-02-15T13:24:42;10.75;;;6.15;;
45043;SDS011;30784;48.490;9.688;2023-02-15T13:27:20;8.63;;;4.90;;
45043;SDS011;30784;48.490;9.688;2023-02-15T13:29:53;9.75;;;5.50;;
45043;SDS011;30784;48.490;9.688;2023-02-15T13:32:25;10.57;;;6.75;;
45043;SDS011;30784;48.490;9.688;2023-02-15T13:34:56;9.48;;;5.38;;
45043;SDS011;30784;48.490;9.688;2023-02-15T13:37:30;11.35;;;5.45;;
45043;SDS011;30784;48.490;9.688;2023-02-15T13:40:18;11.80;;;7.20;;
45043;SDS011;30784;48.490;9.688;2023-02-15T13:43:04;12.80;;;8.25;;
45043;SDS011;30784;48.490;9.688;2023-02-15T13:45:47;10.35;;;5.40;;
45043;SDS011;30784;48.490;9.688;2023-02-15T13:48:33;8.32;;;4.60;;
45043;SDS011;30784;48.490;9.688;2023-02-15T13:54:21;8.75;;;4.60;;
45043;SDS011;30784;48.490;9.688;2023-02-15T13:56:58;9.25;;;5.15;;
45043;SDS011;30784;48.490;9.688;2023-02-15T13:59:47;10.57;;;5.68;;
45043;SDS011;30784;48.490;9.688;2023-02-15T14:08:01;10.07;;;5.32;;
45043;SDS011;30784;48.490;9.688;2023-02-15T14:13:27;9.02;;;5.13;;
45043;SDS011;30784;48.490;9.688;2023-02-15T14:19:14;7.75;;;4.25;;
45043;SDS011;30784;48.490;9.688;2023-02-15T14:21:58;8.43;;;4.30;;
45043;SDS011;30784;48.490;9.688;2023-02-15T14:24:33;9.32;;;4.40;;
45043;SDS011;30784;48.490;9.688;2023-02-15T14:33:05;6.35;;;2.30;;
45043;SDS011;30784;48.490;9.688;2023-02-15T14:35:50;6.07;;;1.50;;
45043;SDS011;30784;48.490;9.688;2023-02-15T14:41:18;4.90;;;1.40;;
45043;SDS011;30784;48.490;9.688;2023-02-15T14:46:52;9.57;;;4.35;;
45043;SDS011;30784;48.490;9.688;2023-02-15T14:49:27;9.77;;;5.30;;
45043;SDS011;30784;48.490;9.688;2023-02-15T14:52:07;10.70;;;5.63;;
45043;SDS011;30784;48.490;9.688;2023-02-15T14:59:27;11.27;;;6.47;;
45043;SDS011;30784;48.490;9.688;2023-02-15T15:02:10;11.88;;;6.88;;
45043;SDS011;30784;48.490;9.688;2023-02-15T15:04:44;11.48;;;7.68;;
45043;SDS011;30784;48.490;9.688;2023-02-15T15:07:22;11.52;;;7.10;;
45043;SDS011;30784;48.490;9.688;2023-02-15T15:09:58;12.65;;;6.80;;
45043;SDS011;30784;48.490;9.688;2023-02-15T15:14:52;10.15;;;6.22;;
45043;SDS011;30784;48.490;9.688;2023-02-15T15:19:58;11.63;;;7.43;;
45043;SDS011;30784;48.490;9.688;2023-02-15T15:22:25;13.90;;;7.38;;
45043;SDS011;30784;48.490;9.688;2023-02-15T15:24:53;13.73;;;8.10;;
45043;SDS011;30784;48.490;9.688;2023-02-15T15:27:39;14.25;;;8.00;;
45043;SDS011;30784;48.490;9.688;2023-02-15T15:35:30;12.20;;;7.10;;
45043;SDS011;30784;48.490;9.688;2023-02-15T15:47:54;12.27;;;7.10;;
45043;SDS011;30784;48.490;9.688;2023-02-15T15:50:29;11.38;;;6.78;;
45043;SDS011;30784;48.490;9.688;2023-02-15T15:52:57;12.10;;;7.30;;
45043;SDS011;30784;48.490;9.688;2023-02-15T15:55:26;12.35;;;6.72;;
45043;SDS011;30784;48.490;9.688;2023-02-15T15:57:58;12.52;;;6.82;;
45043;SDS011;30784;48.490;9.688;2023-02-15T16:03:28;12.45;;;6.78;;
45043;SDS011;30784;48.490;9.688;2023-02-15T16:05:55;11.77;;;6.80;;
45043;SDS011;30784;48.490;9.688;2023-02-15T16:08:34;11.70;;;6.88;;
45043;SDS011;30784;48.490;9.688;2023-02-15T16:11:13;12.55;;;6.70;;
45043;SDS011;30784;48.490;9.688;2023-02-15T16:13:44;11.70;;;6.32;;
45043;SDS011;30784;48.490;9.688;2023-02-15T16:16:11;11.80;;;6.82;;
45043;SDS011;30784;48.490;9.688;2023-02-15T16:18:38;14.55;;;6.22;;
45043;SDS011;30784;48.490;9.688;2023-02-15T16:21:12;12.55;;;7.20;;
45043;SDS011;30784;48.490;9.688;2023-02-15T16:23:50;11.45;;;6.82;;
45043;SDS011;30784;48.490;9.688;2023-02-15T16:29:30;14.98;;;8.15;;
45043;SDS011;30784;48.490;9.688;2023-02-15T16:31:59;14.57;;;9.07;;
45043;SDS011;30784;48.490;9.688;2023-02-15T16:34:30;15.18;;;9.30;;
45043;SDS011;30784;48.490;9.688;2023-02-15T16:39:59;16.77;;;9.60;;
45043;SDS011;30784;48.490;9.688;2023-02-15T16:42:25;24.75;;;15.30;;
45043;SDS011;30784;48.490;9.688;2023-02-15T16:44:53;22.67;;;12.70;;
45043;SDS011;30784;48.490;9.688;2023-02-15T16:47:41;31.53;;;16.03;;
45043;SDS011;30784;48.490;9.688;2023-02-15T16:50:16;31.40;;;14.52;;
45043;SDS011;30784;48.490;9.688;2023-02-15T16:52:44;24.05;;;13.75;;
45043;SDS011;30784;48.490;9.688;2023-02-15T16:55:17;26.38;;;14.40;;
45043;SDS011;30784;48.490;9.688;2023-02-15T16:57:47;20.13;;;10.82;;
45043;SDS011;30784;48.490;9.688;2023-02-15T17:00:24;15.57;;;9.05;;
45043;SDS011;30784;48.490;9.688;2023-02-15T17:03:08;13.95;;;7.95;;
45043;SDS011;30784;48.490;9.688;2023-02-15T17:05:56;14.65;;;8.63;;
45043;SDS011;30784;48.490;9.688;2023-02-15T17:08:33;15.77;;;9.35;;
45043;SDS011;30784;48.490;9.688;2023-02-15T17:11:11;14.70;;;8.23;;
45043;SDS011;30784;48.490;9.688;2023-02-15T17:13:39;13.73;;;8.00;;
45043;SDS011;30784;48.490;9.688;2023-02-15T17:16:28;14.68;;;8.40;;
45043;SDS011;30784;48.490;9.688;2023-02-15T17:18:57;16.98;;;8.98;;
45043;SDS011;30784;48.490;9.688;2023-02-15T17:21:33;16.95;;;9.77;;
45043;SDS011;30784;48.490;9.688;2023-02-15T17:24:04;19.85;;;12.90;;
45043;SDS011;30784;48.490;9.688;2023-02-15T17:26:31;21.00;;;12.45;;
45043;SDS011;30784;48.490;9.688;2023-02-15T17:29:01;17.15;;;10.60;;